sensor_id;sensor_type;location;lat;lon;timestamp;P1;durP1;ratioP1;P2;durP2;ratioP2
61739;SDS011;47645;45.288;12.038;2023-06-26T00:02:52;7.9;;;4.2;;
61739;SDS011;47645;45.288;12.038;2023-06-26T00:12:54;8.2;;;5.5;;
61739;SDS011;47645;45.288;12.038;2023-06-26T00:22:59;9.3;;;6.0;;
61739;SDS011;47645;45.288;12.038;2023-06-26T00:32:57;10.2;;;5.2;;
61739;SDS011;47645;45.288;12.038;2023-06-26T00:42:58;7.0;;;4.8;;
61739;SDS011;47645;45.288;12.038;2023-06-26T00:53:01;5.3;;;4.1;;
61739;SDS011;47645;45.288;12.038;2023-06-26T01:03:01;6.9;;;4.5;;
61739;SDS011;47645;45.288;12.038;2023-06-26T01:13:02;7.2;;;4.2;;
61739;SDS011;47645;45.288;12.038;2023-06-26T01:23:05;11.3;;;4.4;;
61739;SDS011;47645;45.288;12.038;2023-06-26T01:33:05;7.5;;;4.1;;
61739;SDS011;47645;45.288;12.038;2023-06-26T01:43:08;8.9;;;5.0;;
61739;SDS011;47645;45.288;12.038;2023-06-26T01:53:09;7.5;;;4.8;;
61739;SDS011;47645;45.288;12.038;2023-06-26T02:03:09;9.3;;;4.3;;
61739;SDS011;47645;45.288;12.038;2023-06-26T02:13:11;9.7;;;5.4;;
61739;SDS011;47645;45.288;12.038;2023-06-26T02:23:13;6.4;;;3.8;;
61739;SDS011;47645;45.288;12.038;2023-06-26T02:33:13;7.7;;;4.2;;
61739;SDS011;47645;45.288;12.038;2023-06-26T02:43:15;9.4;;;4.6;;
61739;SDS011;47645;45.288;12.038;2023-06-26T02:53:16;4.6;;;3.3;;
61739;SDS011;47645;45.288;12.038;2023-06-26T03:03:18;6.6;;;4.4;;
61739;SDS011;47645;45.288;12.038;2023-06-26T03:13:19;5.7;;;3.7;;
61739;SDS011;47645;45.288;12.038;2023-06-26T03:23:20;11.8;;;4.5;;
61739;SDS011;47645;45.288;12.038;2023-06-26T03:33:22;6.4;;;4.0;;
61739;SDS011;47645;45.288;12.038;2023-06-26T03:43:23;5.2;;;3.6;;
61739;SDS011;47645;45.288;12.038;2023-06-26T03:53:24;4.8;;;3.6;;
61739;SDS011;47645;45.288;12.038;2023-06-26T04:03:25;13.3;;;5.3;;
61739;SDS011;47645;45.288;12.038;2023-06-26T04:13:27;9.0;;;5.2;;
61739;SDS011;47645;45.288;12.038;2023-06-26T04:23:28;13.7;;;5.1;;
61739;SDS011;47645;45.288;12.038;2023-06-26T04:33:30;15.4;;;5.4;;
61739;SDS011;47645;45.288;12.038;2023-06-26T04:43:31;15.6;;;5.1;;
61739;SDS011;47645;45.288;12.038;2023-06-26T04:53:32;10.3;;;6.2;;
61739;SDS011;47645;45.288;12.038;2023-06-26T05:03:35;11.0;;;7.2;;
61739;SDS011;47645;45.288;12.038;2023-06-26T05:13:35;14.2;;;7.3;;
61739;SDS011;47645;45.288;12.038;2023-06-26T05:23:36;11.1;;;6.4;;
61739;SDS011;47645;45.288;12.038;2023-06-26T05:33:37;14.3;;;7.3;;
61739;SDS011;47645;45.288;12.038;2023-06-26T05:43:39;11.0;;;7.0;;
61739;SDS011;47645;45.288;12.038;2023-06-26T05:53:40;11.1;;;7.4;;
61739;SDS011;47645;45.288;12.038;2023-06-26T06:03:41;11.6;;;7.1;;
61739;SDS011;47645;45.288;12.038;2023-06-26T06:13:43;8.9;;;6.3;;
61739;SDS011;47645;45.288;12.038;2023-06-26T06:23:45;11.0;;;7.0;;
61739;SDS011;47645;45.288;12.038;2023-06-26T06:33:46;12.3;;;6.5;;
61739;SDS011;47645;45.288;12.038;2023-06-26T06:43:47;9.8;;;6.2;;
61739;SDS011;47645;45.288;12.038;2023-06-26T06:53:48;12.1;;;6.8;;
61739;SDS011;47645;45.288;12.038;2023-06-26T07:03:50;9.4;;;5.8;;
61739;SDS011;47645;45.288;12.038;2023-06-26T07:13:52;9.9;;;5.4;;
61739;SDS011;47645;45.288;12.038;2023-06-26T07:23:53;8.4;;;5.0;;
61739;SDS011;47645;45.288;12.038;2023-06-26T07:33:55;8.8;;;5.1;;
61739;SDS011;47645;45.288;12.038;2023-06-26T07:43:56;10.0;;;6.3;;
61739;SDS011;47645;45.288;12.038;2023-06-26T07:53:57;7.8;;;5.5;;
61739;SDS011;47645;45.288;12.038;2023-06-26T08:03:59;10.8;;;5.2;;
61739;SDS011;47645;45.288;12.038;2023-06-26T08:14:00;8.0;;;4.8;;
61739;SDS011;47645;45.288;12.038;2023-06-26T08:24:02;6.3;;;4.4;;
61739;SDS011;47645;45.288;12.038;2023-06-26T08:34:04;7.3;;;4.3;;
61739;SDS011;47645;45.288;12.038;2023-06-26T08:44:05;7.6;;;4.4;;
61739;SDS011;47645;45.288;12.038;2023-06-26T08:54:07;8.1;;;5.0;;
61739;SDS011;47645;45.288;12.038;2023-06-26T09:04:08;8.4;;;4.6;;
61739;SDS011;47645;45.288;12.038;2023-06-26T09:14:10;8.2;;;4.0;;
61739;SDS011;47645;45.288;12.038;2023-06-26T09:24:11;7.6;;;4.1;;
61739;SDS011;47645;45.288;12.038;2023-06-26T09:34:13;7.0;;;4.4;;
61739;SDS011;47645;45.288;12.038;2023-06-26T09:44:15;5.8;;;3.8;;
61739;SDS011;47645;45.288;12.038;2023-06-26T09:54:17;7.3;;;3.7;;
61739;SDS011;47645;45.288;12.038;2023-06-26T10:04:19;7.2;;;3.6;;
61739;SDS011;47645;45.288;12.038;2023-06-26T10:14:21;5.8;;;3.5;;
61739;SDS011;47645;45.288;12.038;2023-06-26T10:24:23;5.6;;;3.5;;
61739;SDS011;47645;45.288;12.038;2023-06-26T10:34:24;5.6;;;3.8;;
61739;SDS011;47645;45.288;12.038;2023-06-26T10:44:27;4.8;;;3.3;;
61739;SDS011;47645;45.288;12.038;2023-06-26T10:54:30;5.8;;;3.6;;
61739;SDS011;47645;45.288;12.038;2023-06-26T11:04:39;5.4;;;3.9;;
61739;SDS011;47645;45.288;12.038;2023-06-26T11:14:33;6.3;;;3.5;;
61739;SDS011;47645;45.288;12.038;2023-06-26T11:24:35;5.6;;;3.8;;
61739;SDS011;47645;45.288;12.038;2023-06-26T11:34:38;4.1;;;3.4;;
61739;SDS011;47645;45.288;12.038;2023-06-26T11:44:40;4.2;;;3.5;;
61739;SDS011;47645;45.288;12.038;2023-06-26T11:54:41;6.8;;;3.8;;
61739;SDS011;47645;45.288;12.038;2023-06-26T12:04:44;4.4;;;3.6;;
61739;SDS011;47645;45.288;12.038;2023-06-26T12:14:46;4.1;;;3.4;;
61739;SDS011;47645;45.288;12.038;2023-06-26T12:24:48;4.8;;;3.6;;
61739;SDS011;47645;45.288;12.038;2023-06-26T12:34:50;6.6;;;4.1;;
61739;SDS011;47645;45.288;12.038;2023-06-26T12:44:53;5.4;;;3.6;;
61739;SDS011;47645;45.288;12.038;2023-06-26T12:54:56;6.5;;;3.8;;
61739;SDS011;47645;45.288;12.038;2023-06-26T13:04:58;4.9;;;3.6;;
61739;SDS011;47645;45.288;12.038;2023-06-26T13:15:00;5.2;;;3.4;;
61739;SDS011;47645;45.288;12.038;2023-06-26T13:25:02;7.0;;;4.1;;
61739;SDS011;47645;45.288;12.038;2023-06-26T13:30:04;5.7;;;3.8;;
61739;SDS011;47645;45.288;12.038;2023-06-26T13:40:07;8.3;;;3.7;;
61739;SDS011;47645;45.288;12.038;2023-06-26T13:50:09;5.5;;;3.9;;
61739;SDS011;47645;45.288;12.038;2023-06-26T14:00:12;6.0;;;3.7;;
61739;SDS011;47645;45.288;12.038;2023-06-26T14:10:13;3.8;;;3.4;;
61739;SDS011;47645;45.288;12.038;2023-06-26T14:20:16;5.8;;;3.9;;
61739;SDS011;47645;45.288;12.038;2023-06-26T14:30:18;7.7;;;3.7;;
61739;SDS011;47645;45.288;12.038;2023-06-26T14:40:21;6.8;;;3.8;;
61739;SDS011;47645;45.288;12.038;2023-06-26T14:50:23;4.5;;;3.4;;
61739;SDS011;47645;45.288;12.038;2023-06-26T15:00:27;5.1;;;3.6;;
61739;SDS011;47645;45.288;12.038;2023-06-26T15:10:28;6.8;;;3.4;;
61739;SDS011;47645;45.288;12.038;2023-06-26T15:20:30;5.2;;;3.2;;
61739;SDS011;47645;45.288;12.038;2023-06-26T15:30:33;4.7;;;3.4;;
61739;SDS011;47645;45.288;12.038;2023-06-26T15:40:35;4.7;;;2.9;;
61739;SDS011;47645;45.288;12.038;2023-06-26T15:50:37;6.3;;;3.3;;
61739;SDS011;47645;45.288;12.038;2023-06-26T16:00:40;7.2;;;3.9;;
61739;SDS011;47645;45.288;12.038;2023-06-26T16:10:42;4.0;;;3.1;;
61739;SDS011;47645;45.288;12.038;2023-06-26T16:20:45;5.3;;;3.5;;
61739;SDS011;47645;45.288;12.038;2023-06-26T16:30:47;4.8;;;3.4;;
61739;SDS011;47645;45.288;12.038;2023-06-26T16:40:49;5.8;;;3.4;;
61739;SDS011;47645;45.288;12.038;2023-06-26T16:50:52;6.3;;;3.7;;
61739;SDS011;47645;45.288;12.038;2023-06-26T17:00:54;4.7;;;3.6;;
61739;SDS011;47645;45.288;12.038;2023-06-26T17:10:56;5.9;;;3.5;;
61739;SDS011;47645;45.288;12.038;2023-06-26T17:20:58;7.8;;;3.6;;
61739;SDS011;47645;45.288;12.038;2023-06-26T17:31:01;8.2;;;3.6;;
61739;SDS011;47645;45.288;12.038;2023-06-26T17:41:03;5.9;;;3.4;;
61739;SDS011;47645;45.288;12.038;2023-06-26T17:51:05;7.3;;;3.7;;
61739;SDS011;47645;45.288;12.038;2023-06-26T18:01:07;5.3;;;3.5;;
61739;SDS011;47645;45.288;12.038;2023-06-26T18:11:09;5.6;;;3.6;;
61739;SDS011;47645;45.288;12.038;2023-06-26T18:21:11;8.2;;;3.4;;
61739;SDS011;47645;45.288;12.038;2023-06-26T18:31:14;8.1;;;3.8;;
61739;SDS011;47645;45.288;12.038;2023-06-26T18:41:16;5.8;;;3.4;;
61739;SDS011;47645;45.288;12.038;2023-06-26T18:51:18;4.4;;;3.3;;
61739;SDS011;47645;45.288;12.038;2023-06-26T19:01:20;14.7;;;4.0;;
61739;SDS011;47645;45.288;12.038;2023-06-26T19:11:22;5.4;;;3.7;;
61739;SDS011;47645;45.288;12.038;2023-06-26T19:21:24;4.9;;;3.3;;
61739;SDS011;47645;45.288;12.038;2023-06-26T19:31:26;6.3;;;3.8;;
61739;SDS011;47645;45.288;12.038;2023-06-26T19:41:28;6.8;;;4.3;;
61739;SDS011;47645;45.288;12.038;2023-06-26T19:51:29;7.3;;;4.5;;
61739;SDS011;47645;45.288;12.038;2023-06-26T20:01:31;5.9;;;3.8;;
61739;SDS011;47645;45.288;12.038;2023-06-26T20:11:33;9.3;;;4.7;;
61739;SDS011;47645;45.288;12.038;2023-06-26T20:21:35;6.2;;;4.5;;
61739;SDS011;47645;45.288;12.038;2023-06-26T20:31:37;9.5;;;5.3;;
61739;SDS011;47645;45.288;12.038;2023-06-26T20:41:39;6.2;;;4.0;;
61739;SDS011;47645;45.288;12.038;2023-06-26T20:51:41;5.7;;;3.6;;
61739;SDS011;47645;45.288;12.038;2023-06-26T21:01:42;9.0;;;5.6;;
61739;SDS011;47645;45.288;12.038;2023-06-26T21:11:45;5.5;;;3.9;;
61739;SDS011;47645;45.288;12.038;2023-06-26T21:21:46;10.3;;;5.3;;
61739;SDS011;47645;45.288;12.038;2023-06-26T21:31:48;6.3;;;4.6;;
61739;SDS011;47645;45.288;12.038;2023-06-26T21:41:49;6.4;;;4.7;;
61739;SDS011;47645;45.288;12.038;2023-06-26T21:51:51;8.6;;;4.3;;
61739;SDS011;47645;45.288;12.038;2023-06-26T22:01:53;9.0;;;6.2;;
61739;SDS011;47645;45.288;12.038;2023-06-26T22:11:55;5.4;;;4.1;;
61739;SDS011;47645;45.288;12.038;2023-06-26T22:21:56;7.3;;;5.5;;
61739;SDS011;47645;45.288;12.038;2023-06-26T22:31:58;7.8;;;6.1;;
61739;SDS011;47645;45.288;12.038;2023-06-26T22:42:00;5.8;;;4.6;;
61739;SDS011;47645;45.288;12.038;2023-06-26T22:52:01;9.5;;;6.6;;
61739;SDS011;47645;45.288;12.038;2023-06-26T23:02:03;6.4;;;4.6;;
61739;SDS011;47645;45.288;12.038;2023-06-26T23:12:05;7.9;;;4.9;;
61739;SDS011;47645;45.288;12.038;2023-06-26T23:22:09;9.0;;;5.6;;
61739;SDS011;47645;45.288;12.038;2023-06-26T23:32:08;9.4;;;5.7;;
61739;SDS011;47645;45.288;12.038;2023-06-26T23:42:10;6.7;;;4.5;;
61739;SDS011;47645;45.288;12.038;2023-06-26T23:52:11;6.9;;;3.8;;
